Time;durP1;ratioP1;P1;durP2;ratioP2;P2;SDS_P1;SDS_P2;PMS_P1;PMS_P2;Temp;Humidity;BMP_temperature;BMP_pressure;BME280_temperature;BME280_humidity;BME280_pressure;Samples;Min_cycle;Max_cycle;Signal;HPM_P1;HPM_P2
2022/05/01 00:02:26;;;;;;;29.30;16.70;;;;;;;5.02;70.43;100284.64;108908;1278;138564;-64
2022/05/01 00:04:54;;;;;;;32.50;15.70;;;;;;;5.02;70.37;100286.93;109011;1278;22457;-63
2022/05/01 00:07:22;;;;;;;28.10;16.00;;;;;;;5.02;70.17;100290.37;108667;1281;138673;-64
2022/05/01 00:09:51;;;;;;;28.50;15.70;;;;;;;5.00;70.46;100288.95;108964;1279;23127;-63
2022/05/01 00:12:20;;;;;;;25.60;15.10;;;;;;;4.98;70.45;100290.31;108844;1278;138423;-64
2022/05/01 00:14:48;;;;;;;31.10;17.50;;;;;;;4.93;70.42;100292.95;109038;1278;22392;-63
2022/05/01 00:17:17;;;;;;;36.30;16.00;;;;;;;4.90;70.50;100295.57;108977;1278;22431;-63
2022/05/01 00:19:46;;;;;;;34.90;17.00;;;;;;;4.87;70.46;100293.39;108909;1278;138706;-64
2022/05/01 00:22:21;;;;;;;32.30;16.90;;;;;;;4.83;70.75;100293.71;109125;1277;22476;-64
2022/05/01 00:24:50;;;;;;;30.10;16.20;;;;;;;4.80;70.78;100295.80;109024;1277;138463;-64
2022/05/01 00:27:18;;;;;;;33.10;17.70;;;;;;;4.76;70.85;100297.00;109208;1277;23453;-63
2022/05/01 00:29:46;;;;;;;30.80;17.60;;;;;;;4.75;70.89;100296.88;109140;1276;22442;-64
2022/05/01 00:32:15;;;;;;;32.00;16.80;;;;;;;4.73;70.96;100297.78;108975;1277;138895;-64
2022/05/01 00:37:31;;;;;;;37.30;18.70;;;;;;;4.73;70.78;100303.18;109093;1277;138724;-63
2022/05/01 00:40:00;;;;;;;35.30;18.70;;;;;;;4.74;70.71;100302.86;109171;1277;22461;-63
2022/05/01 00:42:28;;;;;;;40.90;18.80;;;;;;;4.71;70.45;100301.64;109007;1276;138599;-64
2022/05/01 00:44:57;;;;;;;33.70;18.20;;;;;;;4.66;70.49;100299.23;109202;1277;22445;-64
2022/05/01 00:47:25;;;;;;;34.80;18.00;;;;;;;4.65;70.81;100306.58;109256;1276;22558;-63
2022/05/01 00:49:53;;;;;;;41.60;19.70;;;;;;;4.63;70.64;100308.27;109077;1277;138729;-64
2022/05/01 00:52:25;;;;;;;33.60;17.70;;;;;;;4.62;70.89;100310.83;109161;1277;22393;-63
2022/05/01 00:54:53;;;;;;;38.70;17.70;;;;;;;4.60;70.99;100310.64;109077;1275;138904;-64
2022/05/01 00:57:21;;;;;;;38.20;17.50;;;;;;;4.57;71.04;100311.74;109186;1277;22266;-63
2022/05/01 00:59:49;;;;;;;44.60;19.20;;;;;;;4.55;71.09;100311.77;109180;1277;23306;-63
2022/05/01 01:02:18;;;;;;;32.30;17.70;;;;;;;4.55;71.11;100311.85;109082;1277;139159;-64
2022/05/01 01:04:46;;;;;;;58.00;20.40;;;;;;;4.54;70.99;100311.39;109182;1277;22429;-63
2022/05/01 01:07:15;;;;;;;39.50;19.00;;;;;;;4.55;71.17;100312.72;109085;1277;138174;-63
2022/05/01 01:09:43;;;;;;;40.20;21.60;;;;;;;4.55;71.19;100312.11;109200;1276;23264;-63
2022/05/01 01:15:11;;;;;;;40.60;20.60;;;;;;;4.60;70.74;100314.63;109209;1277;22683;-63
2022/05/01 01:17:41;;;;;;;47.60;21.30;;;;;;;4.63;70.57;100315.98;109172;1277;22267;-63
2022/05/01 01:20:11;;;;;;;43.60;20.30;;;;;;;4.66;71.02;100314.05;109050;1277;138829;-63
2022/05/01 01:22:39;;;;;;;47.90;21.70;;;;;;;4.62;70.71;100314.91;109181;1277;22396;-63
2022/05/01 01:25:11;;;;;;;44.80;21.70;;;;;;;4.52;70.82;100309.67;109096;1277;139132;-63
2022/05/01 01:27:42;;;;;;;48.50;22.40;;;;;;;4.50;70.92;100315.52;109193;1277;22567;-63
2022/05/01 01:32:57;;;;;;;41.00;21.90;;;;;;;4.44;70.65;100313.41;109202;1277;22441;-65
2022/05/01 01:35:26;;;;;;;42.50;21.60;;;;;;;4.40;70.83;100314.30;108946;1278;22560;-65
2022/05/01 01:37:56;;;;;;;41.90;20.90;;;;;;;4.36;70.74;100315.80;109012;1277;138208;-65
2022/05/01 01:40:29;;;;;;;50.70;22.90;;;;;;;4.33;71.29;100315.05;109171;1277;22379;-63
2022/05/01 01:42:57;;;;;;;47.80;22.30;;;;;;;4.29;71.15;100314.40;109095;1277;138268;-65
2022/05/01 01:45:29;;;;;;;55.50;24.00;;;;;;;4.23;71.48;100320.83;108600;1277;24124;-62
2022/05/01 01:48:11;;;;;;;53.80;24.10;;;;;;;4.18;71.57;100323.65;109175;1276;22551;-63
2022/05/01 01:50:43;;;;;;;49.20;22.80;;;;;;;4.14;72.00;100326.04;107919;1277;138445;-63
2022/05/01 01:53:11;;;;;;;46.70;24.30;;;;;;;4.10;72.05;100326.80;104663;1278;22572;-63
2022/05/01 01:55:39;;;;;;;49.20;24.20;;;;;;;4.09;72.34;100327.15;108701;1279;140047;-64
2022/05/01 01:58:07;;;;;;;48.20;21.10;;;;;;;4.10;72.48;100329.70;108917;1278;23455;-64
2022/05/01 02:00:36;;;;;;;38.40;21.90;;;;;;;4.10;72.27;100328.50;108842;1278;138519;-64
2022/05/01 02:03:04;;;;;;;47.20;22.10;;;;;;;4.07;72.28;100329.95;108948;1280;22439;-64
2022/05/01 02:05:34;;;;;;;43.10;22.40;;;;;;;4.05;72.29;100333.09;108921;1278;22407;-64
2022/05/01 02:08:02;;;;;;;39.90;22.20;;;;;;;4.06;72.56;100332.93;108857;1277;138641;-64
2022/05/01 02:10:30;;;;;;;44.70;21.10;;;;;;;4.08;72.46;100336.89;108937;1277;22435;-64
2022/05/01 02:13:01;;;;;;;40.20;21.20;;;;;;;4.09;72.51;100334.66;108881;1278;140046;-64
2022/05/01 02:15:33;;;;;;;42.20;21.20;;;;;;;4.08;72.45;100337.35;109024;1278;22440;-64
2022/05/01 02:18:01;;;;;;;41.10;22.60;;;;;;;4.05;72.34;100340.94;108992;1279;22476;-64
2022/05/01 02:21:34;;;;;;;44.00;21.50;;;;;;;4.03;72.48;100336.21;108937;1278;138729;-64
2022/05/01 02:23:21;;;;;;;44.80;22.60;;;;;;;3.99;72.42;100337.42;109050;1279;22996;-64
2022/05/01 02:25:50;;;;;;;40.50;21.90;;;;;;;3.96;72.39;100337.54;108917;1279;138225;-64
2022/05/01 02:28:26;;;;;;;46.10;22.90;;;;;;;3.94;72.55;100342.30;109047;1279;23690;-64
2022/05/01 02:30:54;;;;;;;44.30;24.00;;;;;;;3.91;72.82;100342.98;108966;1278;139039;-64
2022/05/01 02:33:22;;;;;;;43.70;24.40;;;;;;;3.90;72.69;100343.92;109098;1278;22248;-64
2022/05/01 02:35:50;;;;;;;43.70;22.80;;;;;;;3.91;72.76;100343.84;109063;1278;22418;-64
2022/05/01 02:38:18;;;;;;;40.30;22.80;;;;;;;3.90;72.72;100345.96;108962;1279;138359;-64
2022/05/01 02:40:46;;;;;;;51.80;23.60;;;;;;;3.86;72.61;100344.33;109106;1278;22406;-64
2022/05/01 02:43:14;;;;;;;44.50;25.10;;;;;;;3.81;72.78;100347.67;108967;1279;138237;-64
2022/05/01 02:45:42;;;;;;;43.10;21.20;;;;;;;3.80;73.03;100346.83;109067;1278;22238;-64
2022/05/01 02:48:11;;;;;;;47.10;24.80;;;;;;;3.80;73.09;100345.64;109090;1279;22409;-64
2022/05/01 02:50:39;;;;;;;49.70;24.40;;;;;;;3.79;73.08;100346.31;108951;1279;139230;-64
2022/05/01 02:53:07;;;;;;;38.00;21.20;;;;;;;3.80;73.33;100347.37;109064;1278;22457;-64
2022/05/01 02:55:37;;;;;;;43.50;22.20;;;;;;;3.82;73.25;100350.91;108095;1279;138433;-63
2022/05/01 02:58:07;;;;;;;47.10;24.50;;;;;;;3.81;73.20;100348.88;109101;1277;23684;-64
2022/05/01 03:00:35;;;;;;;40.90;21.90;;;;;;;3.84;73.43;100346.95;108851;1279;138839;-64
2022/05/01 03:03:05;;;;;;;38.20;20.60;;;;;;;3.86;73.60;100347.39;109095;1279;22556;-64
2022/05/01 03:05:34;;;;;;;39.40;20.70;;;;;;;3.85;73.34;100344.94;109029;1278;24700;-64
2022/05/01 03:08:02;;;;;;;46.20;23.40;;;;;;;3.86;73.71;100344.16;108892;1277;138613;-64
2022/05/01 03:10:30;;;;;;;39.00;21.80;;;;;;;3.89;73.92;100347.20;108951;1278;22414;-64
2022/05/01 03:12:58;;;;;;;42.00;22.20;;;;;;;3.93;73.95;100348.54;108864;1278;139397;-64
2022/05/01 03:15:26;;;;;;;40.70;22.70;;;;;;;3.92;74.16;100350.00;108911;1281;22399;-64
2022/05/01 03:23:28;;;;;;;41.30;20.70;;;;;;;4.02;74.55;100351.42;108688;1280;22464;-64
2022/05/01 03:25:57;;;;;;;42.70;24.30;;;;;;;4.08;74.66;100355.72;108782;1279;138329;-64
2022/05/01 03:28:26;;;;;;;41.00;24.40;;;;;;;4.13;74.79;100359.80;108868;1279;22551;-64
2022/05/01 03:30:54;;;;;;;67.90;39.50;;;;;;;4.21;75.04;100355.86;108885;1279;139267;-64
2022/05/01 03:33:23;;;;;;;61.80;39.20;;;;;;;4.29;74.95;100356.40;109044;1278;23482;-64
2022/05/01 03:35:51;;;;;;;63.50;41.80;;;;;;;4.38;75.07;100356.33;108273;1278;1046943;-64
2022/05/01 03:39:11;;;;;;;86.50;56.00;;;;;;;4.53;75.28;100356.46;101470;1312;565311;-63
2022/05/01 03:41:39;;;;;;;98.30;67.80;;;;;;;4.67;75.50;100357.46;108010;1289;22489;-63
2022/05/01 03:44:08;;;;;;;108.30;75.70;;;;;;;4.82;75.47;100352.18;107791;1290;139398;-64
2022/05/01 03:46:38;;;;;;;117.10;83.10;;;;;;;4.99;75.45;100353.50;108138;1288;22437;-64
2022/05/01 03:49:06;;;;;;;102.70;74.30;;;;;;;5.16;75.48;100354.41;107744;1289;138307;-64
2022/05/01 03:51:35;;;;;;;80.70;52.90;;;;;;;5.31;75.09;100354.71;108015;1289;23006;-64
2022/05/01 03:54:03;;;;;;;66.60;42.50;;;;;;;5.51;75.05;100353.00;108939;1278;22425;-64
2022/05/01 03:56:32;;;;;;;60.70;39.10;;;;;;;5.67;74.90;100353.45;108961;1280;138065;-64
2022/05/01 03:59:04;;;;;;;68.40;43.30;;;;;;;5.83;74.33;100352.52;109050;1277;22362;-64
2022/05/01 04:01:33;;;;;;;61.40;41.10;;;;;;;5.98;73.95;100353.92;108951;1278;137869;-64
2022/05/01 04:04:02;;;;;;;62.80;43.30;;;;;;;6.12;73.64;100352.05;109068;1278;22511;-64
2022/05/01 04:06:31;;;;;;;58.80;38.60;;;;;;;6.25;73.74;100349.21;108973;1278;23095;-64
2022/05/01 04:09:00;;;;;;;65.50;40.60;;;;;;;6.37;73.13;100349.58;108820;1280;137998;-64
2022/05/01 04:11:28;;;;;;;61.10;37.40;;;;;;;6.46;72.73;100355.48;109003;1278;22441;-64
2022/05/01 04:13:56;;;;;;;59.90;39.80;;;;;;;6.53;72.87;100355.99;108881;1280;138989;-64
2022/05/01 04:16:25;;;;;;;70.90;43.40;;;;;;;6.58;72.21;100358.29;108936;1280;22482;-63
2022/05/01 04:18:53;;;;;;;66.70;42.60;;;;;;;6.64;72.07;100358.15;108907;1279;139055;-63
2022/05/01 04:21:22;;;;;;;71.60;45.30;;;;;;;6.71;71.56;100363.92;108913;1280;22327;-64
2022/05/01 04:23:50;;;;;;;65.20;42.70;;;;;;;6.78;71.81;100362.66;108954;1280;22449;-64
2022/05/01 04:26:18;;;;;;;60.20;39.70;;;;;;;6.84;71.08;100367.38;108779;1280;138232;-64
2022/05/01 04:31:34;;;;;;;62.20;41.20;;;;;;;6.98;71.18;100373.38;108783;1281;138011;-64
2022/05/01 04:34:02;;;;;;;67.20;45.50;;;;;;;7.02;71.35;100374.54;108967;1280;22430;-64
2022/05/01 04:36:30;;;;;;;67.40;46.00;;;;;;;7.07;71.22;100372.39;108981;1279;23521;-63
2022/05/01 04:38:58;;;;;;;75.40;48.80;;;;;;;7.12;71.15;100375.53;108852;1280;139956;-64
2022/05/01 04:41:26;;;;;;;78.70;51.40;;;;;;;7.16;71.51;100375.98;108978;1279;22428;-64
2022/05/01 04:43:55;;;;;;;82.10;55.60;;;;;;;7.19;71.70;100374.40;108913;1279;138944;-64
2022/05/01 04:46:23;;;;;;;72.90;49.60;;;;;;;7.23;71.56;100380.45;108940;1280;23103;-64
2022/05/01 04:48:52;;;;;;;87.50;52.90;;;;;;;7.30;71.54;100377.13;108859;1280;138164;-64
2022/05/01 04:51:20;;;;;;;82.30;49.20;;;;;;;7.39;71.38;100377.50;108925;1280;22558;-64
2022/05/01 04:53:48;;;;;;;73.50;48.30;;;;;;;7.50;71.15;100371.44;108905;1280;22473;-64
2022/05/01 04:59:07;;;;;;;75.40;44.20;;;;;;;7.73;70.58;100373.23;108975;1280;23709;-64
2022/05/01 05:01:35;;;;;;;54.80;33.40;;;;;;;7.85;70.51;100374.93;108851;1280;137494;-65
2022/05/01 05:04:04;;;;;;;51.50;34.20;;;;;;;7.97;69.91;100373.55;108952;1280;22438;-64
2022/05/01 05:06:32;;;;;;;55.50;35.30;;;;;;;8.09;69.87;100378.21;109011;1280;23434;-64
2022/05/01 05:11:51;;;;;;;49.50;33.20;;;;;;;8.37;69.60;100378.02;108662;1279;22526;-64
2022/05/01 05:14:20;;;;;;;59.60;34.00;;;;;;;8.55;69.67;100379.12;108860;1279;137251;-64
2022/05/01 05:16:49;;;;;;;47.40;29.90;;;;;;;8.77;69.63;100377.03;108947;1280;23152;-64
2022/05/01 05:19:18;;;;;;;41.10;25.50;;;;;;;9.08;69.18;100372.67;108864;1280;138240;-64
2022/05/01 05:21:46;;;;;;;28.80;18.00;;;;;;;9.42;68.36;100368.43;108992;1280;22497;-64
2022/05/01 05:24:23;;;;;;;27.30;18.00;;;;;;;9.77;66.65;100369.11;108994;1280;22391;-64
2022/05/01 05:26:51;;;;;;;27.90;16.30;;;;;;;10.12;64.96;100366.10;108817;1280;138598;-64
2022/05/01 05:29:19;;;;;;;20.50;12.60;;;;;;;10.53;63.92;100364.92;109007;1280;22641;-65
2022/05/01 05:31:47;;;;;;;16.50;9.40;;;;;;;10.97;62.25;100361.89;108845;1279;138368;-65
2022/05/01 05:34:16;;;;;;;16.80;9.70;;;;;;;11.47;60.20;100362.63;108975;1280;23452;-65
2022/05/01 05:36:46;;;;;;;11.40;7.10;;;;;;;11.99;58.48;100362.39;108935;1280;23174;-65
2022/05/01 05:39:14;;;;;;;16.40;8.10;;;;;;;12.47;56.56;100358.14;108860;1280;138517;-65
2022/05/01 05:41:42;;;;;;;9.10;6.30;;;;;;;12.92;54.50;100360.11;108977;1280;23187;-65
2022/05/01 05:44:11;;;;;;;9.50;5.00;;;;;;;13.32;53.06;100353.09;108861;1280;137384;-65
2022/05/01 05:46:39;;;;;;;7.70;5.00;;;;;;;13.61;51.41;100345.98;108984;1280;22429;-65
2022/05/01 05:49:07;;;;;;;8.90;5.70;;;;;;;13.92;50.20;100348.54;108857;1280;137216;-64
2022/05/01 05:51:35;;;;;;;9.70;5.30;;;;;;;14.16;49.13;100347.27;108957;1280;23104;-65
2022/05/01 05:54:03;;;;;;;13.60;7.90;;;;;;;14.32;47.69;100344.77;108963;1279;22425;-65
2022/05/01 05:56:33;;;;;;;22.00;10.80;;;;;;;14.39;46.41;100345.45;108875;1279;137884;-65
2022/05/01 05:59:01;;;;;;;23.50;14.50;;;;;;;14.44;45.89;100347.02;108954;1280;22461;-65
2022/05/01 06:01:30;;;;;;;17.70;10.30;;;;;;;14.45;45.61;100335.88;108855;1280;138002;-64
2022/05/01 06:03:59;;;;;;;14.70;9.00;;;;;;;14.44;45.18;100342.73;108931;1280;23371;-65
2022/05/01 06:06:27;;;;;;;13.20;7.50;;;;;;;14.44;44.63;100342.52;108957;1280;22371;-65
2022/05/01 06:08:55;;;;;;;10.50;5.80;;;;;;;14.43;44.52;100343.27;108871;1280;137525;-65
2022/05/01 06:11:23;;;;;;;7.40;4.40;;;;;;;14.43;44.95;100343.83;108967;1280;23631;-65
2022/05/01 06:13:56;;;;;;;9.10;5.40;;;;;;;14.39;44.37;100342.10;108893;1280;138968;-65
2022/05/01 06:16:24;;;;;;;11.00;5.30;;;;;;;14.36;43.52;100345.08;108994;1280;23295;-65
2022/05/01 06:18:52;;;;;;;8.30;4.20;;;;;;;14.30;43.28;100343.59;108843;1280;139116;-64
2022/05/01 06:21:21;;;;;;;6.40;3.90;;;;;;;14.23;43.70;100346.02;108938;1279;22379;-64
2022/05/01 06:23:50;;;;;;;7.50;4.20;;;;;;;14.22;43.51;100342.39;108854;1281;22452;-64
2022/05/01 06:26:18;;;;;;;8.00;4.10;;;;;;;14.19;42.59;100344.98;108855;1280;138483;-64
2022/05/01 06:28:53;;;;;;;8.50;4.00;;;;;;;14.08;42.11;100343.86;108915;1280;22438;-64
2022/05/01 06:31:21;;;;;;;7.90;3.90;;;;;;;13.96;42.84;100340.14;108833;1280;139062;-64
2022/05/01 06:33:49;;;;;;;8.10;4.00;;;;;;;13.93;43.02;100340.00;108897;1280;22406;-64
2022/05/01 06:36:19;;;;;;;6.90;3.80;;;;;;;13.91;42.82;100342.66;108939;1280;22496;-64
2022/05/01 06:38:47;;;;;;;18.70;4.30;;;;;;;13.90;42.80;100341.99;108820;1280;137243;-64
2022/05/01 06:41:15;;;;;;;7.90;3.40;;;;;;;13.89;42.52;100340.22;108861;1281;22436;-64
2022/05/01 06:43:44;;;;;;;7.50;3.70;;;;;;;13.87;42.34;100338.45;108791;1280;138604;-64
2022/05/01 06:46:13;;;;;;;5.20;3.30;;;;;;;13.85;42.76;100338.39;108908;1280;23672;-64
2022/05/01 06:48:41;;;;;;;7.10;2.70;;;;;;;13.84;43.12;100339.59;108894;1280;22752;-64
2022/05/01 06:51:10;;;;;;;4.00;2.80;;;;;;;13.85;43.04;100340.25;108821;1281;138900;-64
2022/05/01 06:53:38;;;;;;;6.70;2.70;;;;;;;13.88;43.49;100339.99;108911;1280;22443;-65
2022/05/01 06:56:06;;;;;;;6.00;2.80;;;;;;;13.92;43.09;100341.56;108825;1281;137551;-65
2022/05/01 06:58:35;;;;;;;3.60;2.70;;;;;;;13.93;42.10;100338.84;108883;1280;22478;-65
2022/05/01 07:01:03;;;;;;;4.10;2.00;;;;;;;13.87;41.98;100339.94;108812;1281;138582;-64
2022/05/01 07:03:31;;;;;;;4.10;2.50;;;;;;;13.83;42.26;100340.41;108940;1280;22521;-65
2022/05/01 07:06:02;;;;;;;6.20;2.10;;;;;;;13.86;41.93;100337.67;108894;1281;23320;-65
2022/05/01 07:08:31;;;;;;;3.10;1.90;;;;;;;13.87;41.69;100335.81;108857;1280;138272;-64
2022/05/01 07:10:59;;;;;;;5.90;2.50;;;;;;;13.86;41.29;100329.61;108921;1281;22420;-65
2022/05/01 07:13:27;;;;;;;6.80;2.50;;;;;;;13.85;40.87;100330.44;108833;1281;138119;-64
2022/05/01 07:15:59;;;;;;;7.80;2.20;;;;;;;13.89;40.97;100328.45;108974;1280;22434;-65
2022/05/01 07:18:27;;;;;;;3.50;1.80;;;;;;;13.98;41.68;100330.56;108912;1281;22590;-65
2022/05/01 07:20:55;;;;;;;3.30;1.70;;;;;;;14.04;41.44;100327.05;108836;1280;137457;-64
2022/05/01 07:23:25;;;;;;;4.10;1.90;;;;;;;14.13;41.15;100330.96;108901;1281;22406;-64
2022/05/01 07:25:53;;;;;;;2.70;1.70;;;;;;;14.20;40.93;100327.30;108816;1280;137731;-65
2022/05/01 07:28:21;;;;;;;3.50;1.80;;;;;;;14.29;40.66;100330.77;108968;1280;23358;-65
2022/05/01 07:30:50;;;;;;;2.40;1.80;;;;;;;14.35;40.01;100331.63;108926;1279;22540;-64
2022/05/01 07:33:19;;;;;;;3.30;2.00;;;;;;;14.40;39.99;100329.27;108840;1279;137245;-64
2022/05/01 07:35:48;;;;;;;3.30;1.70;;;;;;;14.40;38.98;100324.63;108917;1280;22432;-65
2022/05/01 07:38:17;;;;;;;5.80;1.80;;;;;;;14.36;38.75;100328.40;108820;1280;137358;-64
2022/05/01 07:40:51;;;;;;;4.20;1.80;;;;;;;14.31;38.58;100328.69;108944;1280;23202;-64
2022/05/01 07:43:19;;;;;;;2.90;1.90;;;;;;;14.25;37.69;100328.98;108811;1279;137648;-64
2022/05/01 07:45:47;;;;;;;5.10;1.70;;;;;;;14.19;37.85;100327.06;108970;1279;22444;-64
2022/05/01 07:48:16;;;;;;;2.90;1.70;;;;;;;14.19;38.25;100320.64;108959;1279;22499;-64
2022/05/01 07:50:44;;;;;;;4.80;1.80;;;;;;;14.20;37.82;100324.77;108827;1280;139070;-64
2022/05/01 07:53:13;;;;;;;3.60;1.70;;;;;;;14.17;37.30;100318.44;108952;1280;22558;-64
2022/05/01 07:55:41;;;;;;;4.40;1.70;;;;;;;14.15;37.17;100318.97;107835;1280;138430;-64
2022/05/01 07:58:09;;;;;;;3.90;2.20;;;;;;;14.17;37.56;100319.09;104576;1280;23091;-64
2022/05/01 08:00:37;;;;;;;2.50;1.80;;;;;;;14.20;37.05;100318.57;104503;1280;24437;-63
2022/05/01 08:05:53;;;;;;;3.20;1.50;;;;;;;14.14;36.23;100318.15;104498;1280;24154;-63
2022/05/01 08:08:21;;;;;;;4.00;1.80;;;;;;;14.11;37.07;100318.58;108798;1280;138305;-64
2022/05/01 08:10:49;;;;;;;2.50;1.60;;;;;;;14.11;36.70;100315.98;108920;1279;22468;-64
2022/05/01 08:13:19;;;;;;;4.30;2.00;;;;;;;14.07;36.00;100316.89;108830;1280;138669;-63
2022/05/01 08:15:48;;;;;;;2.10;1.60;;;;;;;14.04;36.87;100318.27;108932;1279;23252;-64
2022/05/01 08:21:07;;;;;;;4.40;2.20;;;;;;;14.00;36.20;100314.52;108798;1279;137466;-64
2022/05/01 08:23:37;;;;;;;4.10;2.10;;;;;;;13.95;36.32;100314.60;108828;1280;22402;-64
2022/05/01 08:26:06;;;;;;;5.40;2.30;;;;;;;13.93;36.46;100313.91;107128;1280;137503;-64
2022/05/01 08:28:36;;;;;;;3.10;2.00;;;;;;;13.91;36.85;100314.45;104554;1280;23745;-63
2022/05/01 08:31:05;;;;;;;3.60;1.90;;;;;;;13.88;36.97;100314.41;108845;1280;139462;-64
2022/05/01 08:33:34;;;;;;;4.20;2.00;;;;;;;13.87;37.02;100311.44;108920;1280;22672;-65
2022/05/01 08:36:04;;;;;;;2.80;1.60;;;;;;;13.86;36.85;100309.78;108934;1279;22451;-64
2022/05/01 08:38:33;;;;;;;3.70;2.10;;;;;;;13.87;37.19;100310.45;108835;1280;137468;-64
2022/05/01 08:41:01;;;;;;;3.20;2.10;;;;;;;13.90;37.27;100309.34;108862;1281;22714;-64
2022/05/01 08:43:29;;;;;;;2.80;1.90;;;;;;;13.92;37.75;100306.50;108840;1280;137512;-64
2022/05/01 08:46:10;;;;;;;3.20;2.40;;;;;;;13.94;37.92;100301.15;108948;1280;22454;-65
2022/05/01 08:49:11;;;;;;;2.90;1.80;;;;;;;13.97;36.86;100297.41;108826;1280;23239;-65
2022/05/01 08:51:40;;;;;;;3.60;1.70;;;;;;;13.98;36.69;100296.54;108770;1280;137601;-64
2022/05/01 08:54:12;;;;;;;5.20;1.90;;;;;;;14.02;37.76;100294.09;108999;1278;22343;-65
2022/05/01 08:56:42;;;;;;;3.40;2.00;;;;;;;14.07;37.35;100294.36;106150;1279;138470;-64
2022/05/01 08:59:14;;;;;;;4.90;2.60;;;;;;;14.09;37.11;100290.10;108984;1280;23368;-65
2022/05/01 09:01:44;;;;;;;6.00;2.40;;;;;;;14.13;37.07;100285.65;108875;1278;138577;-64
2022/05/01 09:04:14;;;;;;;3.90;2.40;;;;;;;14.17;37.53;100285.23;109002;1278;22518;-64
2022/05/01 09:06:43;;;;;;;4.00;2.30;;;;;;;14.25;37.55;100281.89;109344;1275;22481;-64
2022/05/01 09:09:21;;;;;;;2.60;2.00;;;;;;;14.34;37.71;100281.17;109227;1275;137511;-65
2022/05/01 09:14:43;;;;;;;4.50;2.30;;;;;;;14.60;38.98;100272.15;109195;1276;137766;-64
2022/05/01 09:17:15;;;;;;;8.80;3.10;;;;;;;14.74;39.29;100264.38;109347;1277;23200;-65
2022/05/01 09:19:45;;;;;;;11.90;2.70;;;;;;;14.88;39.03;100268.55;109242;1275;137891;-65
2022/05/01 09:22:13;;;;;;;3.40;2.20;;;;;;;15.01;38.23;100267.95;109292;1276;23408;-65
2022/05/01 09:24:41;;;;;;;3.80;2.60;;;;;;;15.07;36.73;100265.17;109241;1275;22444;-65
2022/05/01 09:27:31;;;;;;;8.50;2.50;;;;;;;15.06;35.92;100262.37;109222;1275;137601;-65
2022/05/01 09:30:20;;;;;;;5.40;2.70;;;;;;;15.02;36.12;100262.34;109254;1276;23567;-64
2022/05/01 09:32:48;;;;;;;4.00;2.60;;;;;;;14.97;36.80;100260.53;109252;1275;139084;-64
2022/05/01 09:35:22;;;;;;;7.70;3.70;;;;;;;14.97;37.56;100259.05;109359;1275;22447;-64
2022/05/01 09:38:08;;;;;;;6.20;2.70;;;;;;;15.01;37.17;100258.77;109187;1275;137741;-64
2022/05/01 09:40:36;;;;;;;4.30;2.20;;;;;;;15.05;37.22;100253.03;109317;1276;22447;-64
2022/05/01 09:43:04;;;;;;;5.90;2.50;;;;;;;15.10;37.54;100251.52;109331;1275;23598;-64
2022/05/01 09:45:33;;;;;;;3.50;2.40;;;;;;;15.14;36.83;100250.05;109124;1277;137394;-64
2022/05/01 09:48:20;;;;;;;2.60;2.20;;;;;;;15.17;35.96;100243.84;109315;1275;22533;-64
2022/05/01 09:50:49;;;;;;;4.40;2.60;;;;;;;15.17;35.47;100239.83;109250;1275;139187;-64
2022/05/01 09:53:17;;;;;;;4.00;2.80;;;;;;;15.13;35.47;100246.48;109297;1275;23075;-64
2022/05/01 09:55:58;;;;;;;3.90;2.30;;;;;;;15.12;36.44;100245.70;108046;1275;137679;-64
2022/05/01 09:58:30;;;;;;;6.70;2.50;;;;;;;15.14;35.97;100246.43;109294;1275;23098;-63
2022/05/01 10:00:59;;;;;;;4.90;2.70;;;;;;;15.12;35.69;100250.10;109373;1275;22438;-64
2022/05/01 10:03:28;;;;;;;4.90;3.00;;;;;;;15.10;35.20;100250.31;109113;1276;138092;-64
2022/05/01 10:05:58;;;;;;;5.40;3.00;;;;;;;15.04;35.52;100248.36;109229;1276;22505;-64
2022/05/01 10:08:26;;;;;;;3.90;2.70;;;;;;;14.98;35.34;100248.52;109138;1276;138176;-64
2022/05/01 10:10:59;;;;;;;5.30;3.30;;;;;;;14.92;35.48;100243.88;109311;1276;22534;-65
2022/05/01 10:13:27;;;;;;;4.20;3.10;;;;;;;14.85;35.96;100241.94;109176;1276;138715;-64
2022/05/01 10:16:06;;;;;;;;;;;;;;;14.80;36.43;100236.48;109386;1274;23453;-65
2022/05/01 10:18:36;;;;;;;5.20;2.80;;;;;;;14.81;35.98;100237.91;109312;1275;22401;-64
2022/05/01 10:21:05;;;;;;;3.80;2.70;;;;;;;14.80;36.11;100235.34;109189;1276;137455;-64
2022/05/01 10:23:34;;;;;;;4.10;2.50;;;;;;;14.83;36.54;100236.06;109362;1275;22499;-65
2022/05/01 10:26:24;;;;;;;6.90;3.30;;;;;;;14.89;37.34;100236.06;109230;1276;137948;-64
2022/05/01 10:29:35;;;;;;;7.20;3.00;;;;;;;14.94;36.58;100237.80;109233;1276;22528;-65
2022/05/01 10:32:31;;;;;;;5.00;3.30;;;;;;;14.97;36.37;100233.09;109119;1276;137818;-65
2022/05/01 10:39:04;;;;;;;5.30;3.30;;;;;;;15.00;35.96;100228.94;96162;1268;26647;-64
2022/05/01 10:41:33;;;;;;;6.70;2.80;;;;;;;14.99;36.14;100228.00;105122;1279;25383;-64
2022/05/01 10:44:02;;;;;;;6.20;2.60;;;;;;;14.98;35.73;100225.80;108248;1279;138187;-64
2022/05/01 10:46:34;;;;;;;4.40;2.70;;;;;;;14.97;35.50;100223.27;104989;1281;23037;-65
2022/05/01 10:49:05;;;;;;;5.60;3.40;;;;;;;14.95;35.43;100225.29;104808;1278;22592;-64
2022/05/01 10:51:36;;;;;;;6.20;3.00;;;;;;;14.91;35.22;100225.27;104542;1280;137595;-64
2022/05/01 10:54:17;;;;;;;5.10;2.90;;;;;;;14.89;35.67;100220.15;104656;1278;25324;-64
2022/05/01 10:56:50;;;;;;;5.50;3.10;;;;;;;14.90;35.91;100217.36;104890;1280;137988;-64
2022/05/01 10:59:43;;;;;;;5.00;3.10;;;;;;;14.92;35.77;100217.54;109030;1277;22919;-64
2022/05/01 11:02:35;;;;;;;8.80;2.90;;;;;;;14.96;36.40;100212.23;108938;1279;137760;-64
2022/05/01 11:05:04;;;;;;;5.50;3.20;;;;;;;15.03;36.62;100211.02;109034;1278;22496;-65
2022/05/01 11:07:34;;;;;;;6.60;2.90;;;;;;;15.08;37.04;100208.64;109070;1279;22473;-65
2022/05/01 11:10:08;;;;;;;5.60;3.00;;;;;;;15.14;36.98;100205.95;108918;1277;137436;-65
2022/05/01 11:12:36;;;;;;;5.90;3.00;;;;;;;15.18;35.74;100206.18;108998;1279;22269;-65
2022/05/01 11:15:06;;;;;;;3.80;2.40;;;;;;;15.22;35.42;100201.96;108908;1279;138045;-65
2022/05/01 11:17:46;;;;;;;6.10;2.90;;;;;;;15.26;35.29;100203.63;109018;1279;23243;-65
2022/05/01 11:20:14;;;;;;;5.60;2.80;;;;;;;15.30;34.96;100200.65;108799;1279;138029;-65
2022/05/01 11:22:45;;;;;;;5.60;3.50;;;;;;;15.32;34.66;100200.83;108964;1279;22422;-65
2022/05/01 11:25:37;;;;;;;5.10;3.00;;;;;;;15.28;34.16;100201.27;108922;1279;22446;-64
2022/05/01 11:28:05;;;;;;;4.80;2.70;;;;;;;15.20;34.24;100196.69;108887;1277;137436;-64
2022/05/01 11:30:36;;;;;;;7.30;2.90;;;;;;;15.14;33.70;100194.81;108962;1279;22443;-64
2022/05/01 11:33:08;;;;;;;5.20;2.70;;;;;;;15.11;34.26;100192.45;108883;1278;138339;-64
2022/05/01 11:36:02;;;;;;;4.50;3.30;;;;;;;15.13;34.76;100195.04;109031;1277;23586;-65
2022/05/01 11:38:50;;;;;;;5.10;2.80;;;;;;;15.20;34.49;100197.51;108946;1277;137850;-66
2022/05/01 11:41:40;;;;;;;4.10;2.90;;;;;;;15.27;34.90;100192.21;109032;1279;23320;-66
2022/05/01 11:44:19;;;;;;;6.10;3.40;;;;;;;15.33;35.28;100184.89;108876;1278;138491;-64
2022/05/01 11:46:51;;;;;;;6.70;3.00;;;;;;;15.39;35.10;100184.27;109004;1279;22524;-64
2022/05/01 11:49:20;;;;;;;6.10;3.30;;;;;;;15.46;35.10;100178.64;108991;1277;22483;-64
2022/05/01 11:51:51;;;;;;;8.30;3.30;;;;;;;15.52;34.82;100179.48;108893;1279;139244;-64
2022/05/01 11:54:19;;;;;;;7.40;3.50;;;;;;;15.59;34.73;100172.64;109034;1277;22412;-64
2022/05/01 12:02:25;;;;;;;8.50;3.90;;;;;;;15.62;33.22;100176.59;108723;1279;138141;-65
2022/05/01 12:04:58;;;;;;;11.00;3.70;;;;;;;15.53;33.66;100169.08;108825;1279;23287;-65
2022/05/01 12:07:26;;;;;;;8.00;3.70;;;;;;;15.53;34.38;100174.32;109010;1279;23043;-65